Finley, Washington
Current Conditions -  °F | °C
As of 4:53 PM on Monday 24 Nov 2014 (Local Time) from KPSC Reporting Station
Overcast Overcast  
Wind Chill: 50°   Ceiling: 8000
Heat Index: 50°   Visibility: 10mi
Dew Point: 39°   Wind: 6mph
Humidity: 66%   Direction: 200°SSW
Pressure: 30.22"   Gusts: NA
Location:  46.2117°N, 119.173°W
Report Text: KPSC 250053Z 20005KT 10SM OVC080 10/04 A3022 RMK AO2 SLP238 T01000039
Loading
Personal Weather Stations






























Interactive Weather Map New forecast layout! Learn more

10-Day Weather Forecast

Advertisements
Track Severe Weather on mobile